Time;durP1;ratioP1;P1;durP2;ratioP2;P2;SDS_P1;SDS_P2;PMS_P1;PMS_P2;Temp;Humidity;BMP_temperature;BMP_pressure;BME280_temperature;BME280_humidity;BME280_pressure;Samples;Min_cycle;Max_cycle;Signal;HPM_P1;HPM_P2
2021/03/28 00:01:15;;;;;;;68.42;35.88;;;;;;;0.10;80.74;100228.66;1840951;77;21061;-62
2021/03/28 00:03:55;;;;;;;62.48;33.95;;;;;;;0.08;80.90;100231.61;1840939;78;21164;-62
2021/03/28 00:06:34;;;;;;;72.12;38.25;;;;;;;0.08;81.08;100227.77;1841036;78;21522;-62
2021/03/28 00:09:30;;;;;;;71.50;40.20;;;;;;;0.08;81.20;100227.77;1840850;78;21077;-62
2021/03/28 00:12:08;;;;;;;73.37;39.30;;;;;;;0.10;81.22;100230.36;1824823;78;21502;-63
2021/03/28 00:14:51;;;;;;;96.53;50.83;;;;;;;0.07;81.27;100227.34;1841009;77;21105;-61
2021/03/28 00:17:38;;;;;;;;;;;;;;;0.06;81.22;100227.31;1843263;77;21157;-62
2021/03/28 00:20:22;;;;;;;100.20;50.23;;;;;;;0.04;80.88;100233.69;1840881;77;20510;-62
2021/03/28 00:23:24;;;;;;;102.67;50.73;;;;;;;0.01;80.69;100228.52;1840108;78;21042;-62
2021/03/28 00:26:01;;;;;;;105.55;48.23;;;;;;;0.00;80.60;100233.23;1840823;78;20995;-63
2021/03/28 00:28:45;;;;;;;92.05;47.55;;;;;;;-0.02;80.69;100237.46;1810415;78;21053;-63
2021/03/28 00:31:30;;;;;;;107.30;52.43;;;;;;;-0.02;80.71;100232.34;1840813;77;21160;-61
2021/03/28 00:34:14;;;;;;;96.10;50.78;;;;;;;-0.02;80.63;100237.46;1841037;77;21616;-62
2021/03/28 00:36:49;;;;;;;93.22;51.63;;;;;;;-0.03;80.43;100234.05;1840929;78;21320;-62
2021/03/28 00:39:54;;;;;;;97.37;50.55;;;;;;;-0.04;80.38;100228.48;1835932;77;21108;-62
2021/03/28 00:42:36;;;;;;;91.97;46.48;;;;;;;-0.04;80.33;100237.44;1832699;78;21092;-62
2021/03/28 00:45:38;;;;;;;70.87;38.15;;;;;;;-0.06;80.35;100236.55;1832657;77;21549;-62
2021/03/28 00:48:17;;;;;;;77.90;41.00;;;;;;;-0.08;80.36;100229.28;1830900;77;21140;-64
2021/03/28 00:50:56;;;;;;;78.97;38.90;;;;;;;-0.08;80.40;100238.65;1816898;78;21097;-61
2021/03/28 00:53:39;;;;;;;74.07;39.08;;;;;;;-0.09;80.44;100243.32;1832664;78;21160;-62
2021/03/28 00:56:19;;;;;;;78.50;40.60;;;;;;;-0.10;80.60;100237.34;1832776;77;20982;-63
2021/03/28 00:59:03;;;;;;;77.30;37.28;;;;;;;-0.10;80.67;100236.48;1832604;77;21042;-63
2021/03/28 01:02:05;;;;;;;70.35;38.70;;;;;;;-0.09;80.75;100238.20;1832775;77;21037;-62
2021/03/28 01:05:03;;;;;;;78.90;40.05;;;;;;;-0.10;80.78;100237.34;1832800;77;21179;-61
2021/03/28 01:07:45;;;;;;;63.52;35.35;;;;;;;-0.12;80.71;100235.19;1832446;77;21056;-62
2021/03/28 01:10:37;;;;;;;62.55;33.05;;;;;;;-0.14;80.71;100231.74;1832659;77;21171;-61
2021/03/28 01:13:49;;;;;;;73.75;40.08;;;;;;;-0.16;80.90;100230.00;1832716;77;21140;-61
2021/03/28 01:16:57;;;;;;;62.13;34.58;;;;;;;-0.15;81.08;100232.58;1832617;77;21065;-61
2021/03/28 01:19:55;;;;;;;60.38;33.48;;;;;;;-0.16;80.94;100225.75;1832568;77;21470;-62
2021/03/28 01:22:52;;;;;;;60.90;35.55;;;;;;;-0.16;81.16;100231.28;1832707;78;21561;-62
2021/03/28 01:26:02;;;;;;;70.32;33.38;;;;;;;-0.19;81.25;100226.98;1832751;78;21454;-62
2021/03/28 01:28:55;;;;;;;89.05;46.20;;;;;;;-0.19;81.24;100223.14;1832657;77;21060;-61
2021/03/28 01:31:33;;;;;;;;;;;;;;;-0.21;81.00;100231.24;1835489;78;21531;-62
2021/03/28 01:34:16;;;;;;;76.45;41.70;;;;;;;-0.22;80.78;100229.94;1832584;77;21382;-61
2021/03/28 01:36:49;;;;;;;74.92;36.83;;;;;;;-0.27;80.69;100225.17;1832726;78;26191;-63
2021/03/28 01:39:27;;;;;;;104.95;51.13;;;;;;;-0.27;80.81;100221.34;1832503;77;21128;-63
2021/03/28 01:42:00;;;;;;;104.95;53.13;;;;;;;-0.29;80.67;100221.73;1816597;78;21549;-63
2021/03/28 01:44:56;;;;;;;63.05;33.90;;;;;;;-0.30;80.36;100228.95;1832590;77;21073;-63
2021/03/28 01:47:53;;;;;;;67.40;32.70;;;;;;;-0.36;80.28;100229.72;1832580;77;21100;-62
2021/03/28 01:51:07;;;;;;;70.78;33.80;;;;;;;-0.42;80.44;100232.20;1832672;77;20919;-62
2021/03/28 01:53:40;;;;;;;;;;;;;;;-0.48;80.74;100230.41;1835307;78;21113;-62
2021/03/28 01:56:30;;;;;;;88.87;42.55;;;;;;;-0.50;81.16;100228.66;1832656;78;20238;-62
2021/03/28 01:59:10;;;;;;;102.30;52.05;;;;;;;-0.50;81.33;100230.80;1832604;77;21458;-62
2021/03/28 02:02:11;;;;;;;95.47;50.40;;;;;;;-0.50;81.04;100227.39;1832740;78;22261;-61
2021/03/28 02:05:24;;;;;;;52.90;30.75;;;;;;;-0.50;80.80;100231.22;1832688;78;29029;-61
2021/03/28 02:08:35;;;;;;;55.73;32.93;;;;;;;-0.53;80.91;100233.72;1832601;77;21128;-62
2021/03/28 02:11:43;;;;;;;57.00;32.80;;;;;;;-0.54;81.10;100235.42;1832594;78;21162;-61
2021/03/28 02:14:22;;;;;;;57.78;31.10;;;;;;;-0.56;81.35;100234.95;1816429;77;21061;-62
2021/03/28 02:17:35;;;;;;;51.40;31.17;;;;;;;-0.57;81.46;100234.09;1832620;77;21130;-62
2021/03/28 02:20:31;;;;;;;73.85;35.23;;;;;;;-0.61;81.40;100228.52;1831045;77;21576;-63
2021/03/28 02:23:30;;;;;;;102.32;49.83;;;;;;;-0.62;81.62;100229.35;1822589;78;21045;-63
2021/03/28 02:26:26;;;;;;;87.50;48.00;;;;;;;-0.62;81.52;100225.52;1780746;78;21053;-63
2021/03/28 02:29:07;;;;;;;98.12;49.98;;;;;;;-0.62;81.14;100221.69;1832630;77;21116;-63
2021/03/28 02:32:29;;;;;;;84.95;45.50;;;;;;;-0.62;81.14;100219.55;1809631;78;21368;-63
2021/03/28 02:35:13;;;;;;;88.40;49.63;;;;;;;-0.63;81.20;100218.69;1832545;77;21203;-63
2021/03/28 02:38:15;;;;;;;83.20;41.58;;;;;;;-0.67;80.67;100223.30;1832628;77;21478;-63
2021/03/28 02:40:54;;;;;;;73.12;39.98;;;;;;;-0.71;80.87;100218.97;1839182;77;21010;-62
2021/03/28 02:43:47;;;;;;;87.95;42.83;;;;;;;-0.71;81.11;100219.84;1840803;78;21469;-62
2021/03/28 02:46:57;;;;;;;98.62;49.25;;;;;;;-0.70;81.04;100224.11;1840819;78;21553;-62
2021/03/28 02:50:00;;;;;;;87.27;41.88;;;;;;;-0.68;80.85;100219.02;1840838;77;21125;-62
2021/03/28 02:53:03;;;;;;;74.30;40.58;;;;;;;-0.73;80.47;100220.64;1840823;78;21042;-61
2021/03/28 02:55:47;;;;;;;77.70;41.92;;;;;;;-0.76;80.63;100218.89;1840905;77;21069;-62
2021/03/28 02:58:40;;;;;;;82.22;41.80;;;;;;;-0.75;80.99;100212.95;1840734;78;20912;-62
2021/03/28 03:01:53;;;;;;;67.50;36.68;;;;;;;-0.73;80.80;100209.15;1840958;78;22166;-63
2021/03/28 03:05:05;;;;;;;79.20;42.67;;;;;;;-0.73;80.71;100210.42;1840854;77;21490;-62
2021/03/28 03:08:06;;;;;;;88.25;48.63;;;;;;;-0.76;80.31;100211.65;1840820;77;21046;-62
2021/03/28 03:11:08;;;;;;;72.03;38.20;;;;;;;-0.80;80.24;100212.02;1840827;77;21176;-62
2021/03/28 03:14:02;;;;;;;78.05;40.30;;;;;;;-0.82;80.17;100211.16;1840882;77;21090;-62
2021/03/28 03:17:25;;;;;;;99.70;46.73;;;;;;;-0.86;80.29;100205.97;1764308;81;21413;-61
2021/03/28 03:20:22;;;;;;;94.75;47.55;;;;;;;-0.84;80.67;100208.13;1770708;80;21631;-61
2021/03/28 03:23:31;;;;;;;85.60;42.53;;;;;;;-0.84;80.29;100210.69;1770932;81;21092;-63
2021/03/28 03:26:47;;;;;;;81.05;40.28;;;;;;;-0.89;79.87;100213.16;1837745;78;21069;-62
2021/03/28 03:29:39;;;;;;;66.87;36.15;;;;;;;-1.01;80.06;100216.80;1840935;77;21058;-62
2021/03/28 03:32:34;;;;;;;68.28;37.08;;;;;;;-1.04;80.67;100219.30;1840955;78;21181;-62
2021/03/28 03:35:47;;;;;;;69.85;37.65;;;;;;;-1.02;80.77;100218.91;1840851;77;21173;-61
2021/03/28 03:38:46;;;;;;;68.28;37.42;;;;;;;-1.01;80.88;100212.11;1840862;78;21145;-62
2021/03/28 03:42:11;;;;;;;53.70;30.68;;;;;;;-0.95;80.97;100216.87;1888619;76;22796;-62
2021/03/28 03:45:24;;;;;;;55.33;30.08;;;;;;;-0.98;81.07;100222.34;1769666;80;20930;-62
2021/03/28 03:48:14;;;;;;;74.40;37.83;;;;;;;-0.95;80.98;100222.40;1756180;81;21380;-62
2021/03/28 03:51:37;;;;;;;93.20;41.30;;;;;;;-0.95;80.97;100223.26;1706878;82;21009;-62
2021/03/28 03:55:05;;;;;;;78.43;35.33;;;;;;;-0.96;80.79;100230.48;1756314;81;21167;-62
2021/03/28 03:57:48;;;;;;;74.27;36.93;;;;;;;-1.01;80.77;100229.56;1734331;82;21021;-63
2021/03/28 04:00:29;;;;;;;68.52;35.88;;;;;;;-1.07;80.98;100235.41;1755972;81;20956;-63
2021/03/28 04:03:34;;;;;;;61.37;33.88;;;;;;;-1.07;81.14;100234.14;1734336;82;21207;-61
2021/03/28 04:06:57;;;;;;;70.32;33.78;;;;;;;-1.01;81.37;100230.84;1765694;81;21561;-61
2021/03/28 04:09:55;;;;;;;59.53;32.58;;;;;;;-0.92;81.32;100236.08;1722269;83;21523;-62
2021/03/28 04:13:23;;;;;;;64.70;29.57;;;;;;;-0.81;81.22;100232.03;1888661;76;22768;-62
2021/03/28 04:16:21;;;;;;;87.37;47.27;;;;;;;-0.77;81.45;100238.88;1775539;80;21000;-63
2021/03/28 04:19:29;;;;;;;96.75;50.08;;;;;;;-0.58;81.62;100239.17;1773912;81;22190;-62
2021/03/28 04:22:23;;;;;;;88.65;45.65;;;;;;;-0.40;80.86;100236.92;1775267;80;20938;-62
2021/03/28 04:25:19;;;;;;;106.75;47.75;;;;;;;-0.18;80.54;100237.65;1775406;80;21151;-61
2021/03/28 04:28:39;;;;;;;83.42;43.17;;;;;;;0.08;80.17;100233.31;1773952;81;21068;-62
2021/03/28 04:32:01;;;;;;;86.90;44.85;;;;;;;0.30;79.52;100234.88;1775320;80;21044;-62
2021/03/28 04:35:16;;;;;;;89.55;45.58;;;;;;;0.56;79.26;100240.30;1774042;81;22058;-61
2021/03/28 04:38:07;;;;;;;81.02;41.08;;;;;;;0.94;78.92;100243.68;1775233;80;21178;-62
2021/03/28 04:40:59;;;;;;;86.95;45.78;;;;;;;1.35;78.27;100244.91;1773608;81;21144;-62
2021/03/28 04:43:57;;;;;;;100.30;49.20;;;;;;;1.64;77.26;100241.25;1746614;80;21484;-62
2021/03/28 04:46:49;;;;;;;107.95;50.73;;;;;;;1.91;76.47;100243.14;1756067;81;21060;-61
2021/03/28 04:49:42;;;;;;;106.00;52.33;;;;;;;2.18;75.61;100236.03;1734305;82;21400;-63
2021/03/28 04:53:03;;;;;;;96.17;46.37;;;;;;;2.35;75.07;100233.09;1755875;81;21214;-62
2021/03/28 04:56:13;;;;;;;89.77;45.15;;;;;;;2.52;74.40;100233.16;1734359;82;21145;-62
2021/03/28 04:59:03;;;;;;;94.50;45.35;;;;;;;2.66;73.67;100234.04;1755982;81;21087;-62
2021/03/28 05:01:59;;;;;;;113.92;49.38;;;;;;;2.78;73.27;100224.23;1734291;82;21132;-62
2021/03/28 05:04:58;;;;;;;85.90;47.65;;;;;;;2.92;72.95;100227.68;1756028;81;21385;-62
2021/03/28 05:08:24;;;;;;;104.27;47.38;;;;;;;3.07;72.41;100230.69;1734225;82;21076;-62
2021/03/28 05:11:27;;;;;;;101.50;49.60;;;;;;;3.18;71.92;100225.14;1755044;81;21552;-63
2021/03/28 05:14:41;;;;;;;138.52;51.65;;;;;;;3.35;71.57;100229.86;1753168;81;21107;-62
2021/03/28 05:17:21;;;;;;;157.57;73.42;;;;;;;3.52;70.92;100236.70;1731540;81;21206;-62
2021/03/28 05:19:58;;;;;;;131.60;62.62;;;;;;;3.52;70.11;100236.27;1753053;81;21153;-62
2021/03/28 05:23:06;;;;;;;134.03;65.62;;;;;;;3.55;70.12;100225.98;1752496;81;21091;-63
2021/03/28 05:25:57;;;;;;;103.50;54.00;;;;;;;3.66;70.12;100233.25;1752472;81;21539;-63
2021/03/28 05:28:42;;;;;;;111.40;51.63;;;;;;;3.83;70.03;100231.06;1752782;81;21064;-63
2021/03/28 05:31:44;;;;;;;158.35;49.67;;;;;;;3.99;69.80;100228.91;1752502;81;21183;-63
2021/03/28 05:35:03;;;;;;;104.43;40.35;;;;;;;4.12;69.24;100227.57;1728872;81;21459;-62
2021/03/28 05:38:14;;;;;;;94.07;40.85;;;;;;;4.20;68.64;100225.41;1752451;81;21169;-63
2021/03/28 05:41:02;;;;;;;79.92;45.15;;;;;;;4.33;68.45;100225.34;1752602;81;21131;-63
2021/03/28 05:44:23;;;;;;;76.28;46.95;;;;;;;4.55;68.02;100223.53;1744164;81;21207;-64
2021/03/28 05:47:30;;;;;;;88.97;48.75;;;;;;;4.68;67.88;100223.02;1732256;82;21173;-64
2021/03/28 05:50:38;;;;;;;96.50;47.50;;;;;;;4.76;67.65;100222.12;1717300;82;21232;-62
2021/03/28 05:53:45;;;;;;;105.30;48.17;;;;;;;4.89;67.50;100228.48;1693322;84;21555;-62
2021/03/28 05:56:40;;;;;;;104.75;49.90;;;;;;;5.03;67.30;100231.38;1684003;83;21473;-63
2021/03/28 05:59:37;;;;;;;102.85;51.73;;;;;;;5.14;67.43;100231.32;1741612;82;21077;-63
2021/03/28 06:02:46;;;;;;;95.75;51.55;;;;;;;5.28;67.47;100228.62;1693381;84;21068;-62
2021/03/28 06:05:54;;;;;;;88.37;48.10;;;;;;;5.45;67.08;100226.33;1692669;82;22465;-63
2021/03/28 06:09:11;;;;;;;87.67;45.92;;;;;;;5.59;66.66;100226.23;1736016;82;21600;-64
2021/03/28 06:12:10;;;;;;;89.67;47.60;;;;;;;5.67;66.31;100230.01;1737917;82;21112;-62
2021/03/28 06:15:23;;;;;;;81.53;47.65;;;;;;;5.76;65.96;100224.77;1710403;82;21077;-63
2021/03/28 06:18:34;;;;;;;81.05;44.45;;;;;;;5.87;65.78;100222.92;1732898;82;21089;-63
2021/03/28 06:21:32;;;;;;;99.70;44.20;;;;;;;6.02;65.91;100222.78;1732887;82;21344;-62
2021/03/28 06:24:41;;;;;;;104.03;47.23;;;;;;;6.24;65.98;100223.39;1732871;82;21199;-64
2021/03/28 06:27:34;;;;;;;102.80;47.48;;;;;;;6.49;65.94;100218.34;1728440;82;21092;-62
2021/03/28 06:31:00;;;;;;;74.40;42.78;;;;;;;6.73;65.55;100216.31;1732861;82;21116;-63
2021/03/28 06:33:53;;;;;;;71.25;41.08;;;;;;;6.93;65.38;100210.86;1718250;83;21115;-63
2021/03/28 06:36:52;;;;;;;76.33;43.20;;;;;;;7.20;65.05;100199.63;1733780;82;22116;-63
2021/03/28 06:40:16;;;;;;;77.32;42.10;;;;;;;7.58;64.78;100203.33;1776931;79;22843;-63
2021/03/28 06:43:25;;;;;;;115.00;43.83;;;;;;;7.69;64.11;100203.98;1749762;80;21583;-63
2021/03/28 06:46:32;;;;;;;73.22;36.03;;;;;;;7.78;63.74;100207.70;1719785;83;21379;-61
2021/03/28 06:49:36;;;;;;;58.60;36.85;;;;;;;7.93;63.62;100209.16;1719664;83;21594;-63
2021/03/28 06:52:27;;;;;;;104.78;37.45;;;;;;;8.12;63.33;100206.62;1719804;83;21496;-64
2021/03/28 06:55:24;;;;;;;148.53;40.50;;;;;;;8.31;63.17;100198.02;1719743;83;21489;-63
2021/03/28 18:05:22;;;;;;;23.92;16.60;;;;;;;8.29;82.36;99972.58;1614796;86;21125;-64
2021/03/28 18:08:04;;;;;;;23.67;17.45;;;;;;;8.25;82.54;99974.84;1641971;86;21081;-64
2021/03/28 18:10:46;;;;;;;24.12;15.20;;;;;;;8.21;82.58;99975.79;1623970;88;21056;-63
2021/03/28 18:13:31;;;;;;;21.65;15.80;;;;;;;8.16;82.68;99978.11;1657502;85;21124;-63
2021/03/28 18:16:18;;;;;;;20.77;16.65;;;;;;;8.12;82.82;99979.91;1658005;85;21577;-62
2021/03/28 18:18:53;;;;;;;19.77;14.28;;;;;;;8.08;82.86;99987.34;1655212;85;21200;-64
2021/03/28 18:21:51;;;;;;;22.60;15.70;;;;;;;8.06;82.93;99993.44;1674007;85;21092;-64
2021/03/28 18:24:40;;;;;;;19.25;12.73;;;;;;;8.03;83.02;99990.47;1674901;84;21095;-63
2021/03/28 18:27:19;;;;;;;28.67;20.68;;;;;;;7.99;83.31;99987.56;1655562;85;21168;-62
2021/03/28 18:30:05;;;;;;;43.68;25.20;;;;;;;7.95;83.45;99987.22;1674839;85;21136;-63
2021/03/28 18:32:41;;;;;;;49.33;29.87;;;;;;;7.92;83.64;99990.73;1672353;84;21191;-63
2021/03/28 18:35:27;;;;;;;34.58;20.12;;;;;;;7.90;83.76;99999.41;1655627;85;21143;-62
2021/03/28 18:38:07;;;;;;;27.77;17.82;;;;;;;7.85;83.95;100000.80;1675094;84;21187;-63
2021/03/28 18:40:48;;;;;;;21.50;13.75;;;;;;;7.81;84.17;100000.89;1672690;84;21600;-64
2021/03/28 18:43:30;;;;;;;13.00;10.40;;;;;;;7.79;84.33;100003.55;1674251;85;21148;-64
2021/03/28 18:46:10;;;;;;;12.50;8.08;;;;;;;7.78;84.30;100005.73;1675043;84;21115;-65
2021/03/28 18:48:44;;;;;;;13.72;7.87;;;;;;;7.77;84.09;99999.28;1675401;84;21501;-64
2021/03/28 18:51:20;;;;;;;10.23;7.55;;;;;;;7.74;84.00;100000.64;1675087;85;21104;-64
2021/03/28 18:54:08;;;;;;;11.95;8.90;;;;;;;7.73;83.96;100005.41;1674112;85;21379;-63
2021/03/28 18:56:39;;;;;;;13.28;10.03;;;;;;;7.71;83.87;100005.88;1673324;85;21175;-63
2021/03/28 18:59:13;;;;;;;12.07;8.23;;;;;;;7.70;83.81;100001.58;1655926;85;21167;-64
2021/03/28 19:01:46;;;;;;;11.57;8.30;;;;;;;7.67;83.77;99999.91;1675308;85;21109;-64
2021/03/28 19:04:23;;;;;;;8.63;6.47;;;;;;;7.67;83.70;100001.64;1674914;85;22551;-65
2021/03/28 19:07:18;;;;;;;14.03;6.67;;;;;;;7.67;83.68;100008.97;1674666;85;22123;-62
2021/03/28 19:09:57;;;;;;;9.83;6.42;;;;;;;7.65;83.60;99997.79;1674673;85;21163;-64
2021/03/28 19:12:41;;;;;;;8.35;5.62;;;;;;;7.62;83.65;99996.55;1674705;85;21201;-64
2021/03/28 19:15:31;;;;;;;22.40;6.65;;;;;;;7.61;83.71;100006.05;1675012;84;21505;-65
2021/03/28 19:18:18;;;;;;;9.05;6.35;;;;;;;7.61;83.73;99998.73;1674911;85;21103;-64
2021/03/28 19:21:06;;;;;;;7.97;5.60;;;;;;;7.61;83.79;100012.53;1674785;84;21200;-63
2021/03/28 19:23:42;;;;;;;8.03;6.05;;;;;;;7.62;83.84;100009.50;1675008;85;21113;-64
2021/03/28 19:26:27;;;;;;;7.58;5.35;;;;;;;7.61;83.89;100009.09;1675278;85;21084;-65
2021/03/28 19:29:06;;;;;;;7.12;4.70;;;;;;;7.59;83.92;100008.30;1675459;85;21191;-66
2021/03/28 19:31:45;;;;;;;9.93;4.97;;;;;;;7.58;84.13;100010.03;1674863;85;21533;-64
2021/03/28 19:34:29;;;;;;;9.95;5.42;;;;;;;7.54;84.17;100009.67;1674757;85;21216;-63
2021/03/28 19:37:21;;;;;;;11.93;4.25;;;;;;;7.52;84.36;100007.56;1674189;85;21159;-63
2021/03/28 19:40:14;;;;;;;7.47;5.15;;;;;;;7.49;84.34;100008.91;1656057;85;21144;-63
2021/03/28 19:42:45;;;;;;;5.97;4.17;;;;;;;7.47;84.34;100013.27;1674769;85;21096;-62
2021/03/28 19:45:36;;;;;;;6.78;3.87;;;;;;;7.42;84.52;100009.05;1674786;84;21096;-63
2021/03/28 19:48:02;;;;;;;5.00;3.35;;;;;;;7.38;84.61;100019.08;1674825;85;21593;-64
2021/03/28 19:50:36;;;;;;;10.28;3.83;;;;;;;7.28;84.17;100016.24;1674962;85;21538;-63
2021/03/28 19:53:06;;;;;;;6.08;4.22;;;;;;;7.18;84.06;100007.39;1673954;85;21215;-63
2021/03/28 19:55:37;;;;;;;6.83;3.27;;;;;;;7.13;83.80;100012.22;1675561;85;21200;-63
2021/03/28 19:58:06;;;;;;;4.10;3.10;;;;;;;7.05;83.88;100011.50;1675279;85;21211;-64
2021/03/28 20:00:37;;;;;;;6.92;4.10;;;;;;;6.99;83.88;100020.69;1655982;85;21466;-62
2021/03/28 20:03:17;;;;;;;3.22;2.33;;;;;;;6.93;83.94;100024.67;1674511;84;21639;-64
2021/03/28 20:05:56;;;;;;;3.83;2.58;;;;;;;6.90;83.74;100022.98;1684566;83;21139;-64
2021/03/28 20:08:38;;;;;;;3.52;2.08;;;;;;;6.84;83.52;100023.94;1690052;84;21123;-63
2021/03/28 20:11:10;;;;;;;2.62;2.25;;;;;;;6.77;83.12;100031.41;1690230;83;21132;-62
2021/03/28 20:13:50;;;;;;;2.47;2.00;;;;;;;6.67;82.57;100036.30;1690205;84;21167;-65
2021/03/28 20:16:24;;;;;;;4.00;1.65;;;;;;;6.58;81.81;100041.64;1690103;84;21151;-63
2021/03/28 20:18:58;;;;;;;1.65;1.12;;;;;;;6.48;81.76;100040.06;1689961;85;21120;-63
2021/03/28 20:21:37;;;;;;;1.62;1.07;;;;;;;6.39;81.43;100059.60;1689816;83;21111;-62
2021/03/28 20:24:17;;;;;;;1.42;0.90;;;;;;;6.30;81.27;100049.39;1690356;84;21100;-63
2021/03/28 20:26:57;;;;;;;0.85;0.78;;;;;;;6.17;80.98;100036.67;1689914;84;21167;-62
2021/03/28 20:29:54;;;;;;;1.15;0.60;;;;;;;6.05;81.08;100051.03;1689870;84;21186;-62
2021/03/28 20:32:27;;;;;;;1.72;0.78;;;;;;;5.92;81.44;100043.48;1690101;84;21096;-63
2021/03/28 20:35:00;;;;;;;4.12;0.80;;;;;;;5.79;81.94;100043.63;1668519;85;21095;-63
2021/03/28 20:37:42;;;;;;;1.07;0.98;;;;;;;5.73;82.24;100056.59;1690106;84;21159;-62
2021/03/28 20:40:16;;;;;;;0.78;0.75;;;;;;;5.70;82.61;100050.61;1690013;85;21290;-63
2021/03/28 20:42:52;;;;;;;1.40;0.95;;;;;;;5.67;82.79;100051.50;1668191;85;21202;-63
2021/03/28 20:45:28;;;;;;;0.60;0.60;;;;;;;5.66;82.44;100065.70;1668331;84;21119;-63
2021/03/28 20:47:56;;;;;;;1.57;0.68;;;;;;;5.61;82.33;100059.30;1689937;85;21198;-62
2021/03/28 20:50:25;;;;;;;1.17;0.70;;;;;;;5.57;82.27;100054.22;1674980;84;21097;-62
2021/03/28 20:52:57;;;;;;;0.80;0.50;;;;;;;5.50;82.27;100055.58;1615916;86;21137;-64
2021/03/28 20:55:29;;;;;;;0.40;0.30;;;;;;;5.47;82.33;100063.78;1657890;86;21160;-63
2021/03/28 20:58:02;;;;;;;0.72;0.53;;;;;;;5.41;82.08;100057.39;1638945;86;21135;-62
2021/03/28 21:00:34;;;;;;;0.70;0.55;;;;;;;5.37;82.13;100066.06;1658581;86;21565;-62
2021/03/28 21:03:09;;;;;;;0.53;0.50;;;;;;;5.31;82.05;100063.10;1657710;86;21089;-63
2021/03/28 21:05:39;;;;;;;0.60;0.60;;;;;;;5.25;82.17;100064.88;1652812;85;21425;-63
2021/03/28 21:08:12;;;;;;;0.50;0.50;;;;;;;5.22;82.36;100072.64;1644604;87;21606;-62
2021/03/28 21:10:47;;;;;;;0.85;0.62;;;;;;;5.22;82.48;100075.22;1624506;87;21107;-62
2021/03/28 21:13:24;;;;;;;1.40;0.30;;;;;;;5.21;82.46;100080.81;1644576;87;21604;-63
2021/03/28 21:16:00;;;;;;;0.72;0.40;;;;;;;5.18;82.13;100089.90;1644734;87;21075;-63
2021/03/28 21:18:32;;;;;;;1.02;0.40;;;;;;;5.14;82.03;100080.05;1644569;87;21118;-62
2021/03/28 21:21:05;;;;;;;1.45;0.62;;;;;;;5.11;81.70;100078.78;1644475;87;21133;-61
2021/03/28 21:23:37;;;;;;;0.67;0.60;;;;;;;5.06;81.66;100084.41;1644814;87;21106;-62
2021/03/28 21:26:07;;;;;;;3.95;0.80;;;;;;;5.03;81.44;100081.84;1624559;87;21658;-63
2021/03/28 21:28:39;;;;;;;1.02;0.80;;;;;;;5.00;81.12;100084.45;1644787;87;21210;-61
2021/03/28 21:31:11;;;;;;;1.55;0.60;;;;;;;4.93;80.92;100076.38;1644600;87;21201;-63
2021/03/28 21:33:45;;;;;;;0.70;0.50;;;;;;;4.87;80.89;100091.88;1644663;87;21109;-63
2021/03/28 21:36:15;;;;;;;4.00;0.60;;;;;;;4.80;80.94;100083.34;1644653;86;21532;-62
2021/03/28 21:38:50;;;;;;;;;;;;;;;4.74;81.06;100085.98;1646940;86;21177;-62
2021/03/28 21:41:28;;;;;;;0.60;0.28;;;;;;;4.67;81.24;100083.45;1616865;88;20255;-62
2021/03/28 21:43:58;;;;;;;0.20;0.20;;;;;;;4.61;81.51;100081.77;1644579;86;21205;-61
2021/03/28 21:46:46;;;;;;;0.40;0.30;;;;;;;4.58;81.52;100082.26;1644649;87;21160;-62
2021/03/28 21:49:18;;;;;;;2.95;0.40;;;;;;;4.56;81.73;100086.56;1644690;86;21204;-62
2021/03/28 21:52:02;;;;;;;1.15;0.53;;;;;;;4.54;81.85;100085.28;1644605;87;21176;-62
2021/03/28 21:54:37;;;;;;;1.27;0.50;;;;;;;4.53;81.60;100083.58;1624354;87;21109;-63
2021/03/28 21:57:12;;;;;;;1.00;0.80;;;;;;;4.51;81.62;100084.02;1625052;87;22260;-63
2021/03/28 21:59:45;;;;;;;1.20;0.60;;;;;;;4.48;81.49;100085.32;1610100;88;21087;-62
2021/03/28 22:02:17;;;;;;;1.05;0.60;;;;;;;4.45;81.45;100085.34;1611647;88;21115;-62
2021/03/28 22:04:49;;;;;;;0.70;0.50;;;;;;;4.40;81.58;100088.36;1630406;87;21176;-63
2021/03/28 22:07:27;;;;;;;0.70;0.50;;;;;;;4.35;81.74;100087.13;1630614;88;21156;-62
2021/03/28 22:09:59;;;;;;;0.60;0.50;;;;;;;4.28;82.20;100085.45;1612385;88;21399;-61
2021/03/28 22:12:29;;;;;;;0.70;0.50;;;;;;;4.25;82.41;100089.76;1675273;85;21183;-62
2021/03/28 22:15:23;;;;;;;3.20;1.00;;;;;;;4.22;82.54;100084.63;1656331;85;21604;-62
2021/03/28 22:17:53;;;;;;;1.10;0.88;;;;;;;4.20;82.66;100093.64;1675387;85;21494;-62
2021/03/28 22:20:24;;;;;;;1.30;0.88;;;;;;;4.19;82.87;100096.25;1675192;85;21171;-62
2021/03/28 22:22:54;;;;;;;1.80;0.98;;;;;;;4.19;82.93;100100.97;1675257;85;21435;-62
2021/03/28 22:25:25;;;;;;;2.95;0.80;;;;;;;4.18;82.93;100096.69;1675248;84;21093;-62
2021/03/28 22:27:54;;;;;;;1.67;0.90;;;;;;;4.20;83.04;100101.36;1654501;85;21100;-62
2021/03/28 22:30:27;;;;;;;0.90;0.70;;;;;;;4.22;83.02;100089.34;1654619;85;21103;-62
2021/03/28 22:32:58;;;;;;;2.70;0.78;;;;;;;4.20;83.13;100095.39;1675398;85;21112;-62
2021/03/28 22:35:32;;;;;;;0.60;0.40;;;;;;;4.20;83.36;100092.35;1654632;85;21210;-62
2021/03/28 22:38:06;;;;;;;0.95;0.53;;;;;;;4.21;83.68;100093.20;1675302;84;21092;-62
2021/03/28 22:40:38;;;;;;;0.50;0.40;;;;;;;4.19;83.97;100095.82;1675259;85;21082;-62
2021/03/28 22:43:09;;;;;;;0.57;0.50;;;;;;;4.22;84.46;100100.92;1675223;84;21184;-62
2021/03/28 22:45:38;;;;;;;0.55;0.50;;;;;;;4.25;84.83;100090.61;1675336;84;21591;-62
2021/03/28 22:48:09;;;;;;;1.27;0.47;;;;;;;4.27;85.20;100100.47;1675366;84;21552;-62
2021/03/28 22:50:46;;;;;;;0.68;0.68;;;;;;;4.31;85.50;100096.17;1675241;85;21167;-61
2021/03/28 22:53:22;;;;;;;0.42;0.42;;;;;;;4.32;85.79;100089.72;1675231;85;21172;-63
2021/03/28 22:56:05;;;;;;;0.88;0.50;;;;;;;4.33;85.77;100096.58;1675263;85;21093;-63
2021/03/28 22:58:41;;;;;;;0.80;0.40;;;;;;;4.35;85.77;100081.13;1675348;85;21092;-62
2021/03/28 23:01:13;;;;;;;0.45;0.42;;;;;;;4.34;85.93;100091.00;1675247;85;21281;-62
2021/03/28 23:03:46;;;;;;;0.93;0.50;;;;;;;4.33;85.64;100086.72;1675198;84;21104;-62
2021/03/28 23:06:15;;;;;;;0.90;0.45;;;;;;;4.32;85.68;100090.16;1675089;85;21140;-62
2021/03/28 23:08:53;;;;;;;0.60;0.40;;;;;;;4.28;85.82;100082.02;1674969;85;21096;-61
2021/03/28 23:11:25;;;;;;;0.47;0.40;;;;;;;4.26;86.04;100085.89;1674983;84;21085;-62
2021/03/28 23:14:08;;;;;;;0.30;0.30;;;;;;;4.25;85.82;100091.05;1674355;85;22598;-62
2021/03/28 23:16:44;;;;;;;0.30;0.30;;;;;;;4.24;85.98;100097.05;1674960;85;21563;-62
2021/03/28 23:19:16;;;;;;;0.30;0.30;;;;;;;4.22;85.79;100084.63;1701586;84;21084;-63
2021/03/28 23:21:51;;;;;;;1.70;0.30;;;;;;;4.19;85.75;100091.95;1702864;83;21132;-63
2021/03/28 23:24:25;;;;;;;0.30;0.30;;;;;;;4.19;85.85;100096.25;1675410;85;21092;-62
2021/03/28 23:26:54;;;;;;;0.20;0.20;;;;;;;4.18;85.99;100100.55;1674486;85;22209;-63
2021/03/28 23:29:31;;;;;;;0.30;0.30;;;;;;;4.15;86.29;100096.27;1675126;85;21519;-62
2021/03/28 23:31:58;;;;;;;0.30;0.30;;;;;;;4.13;86.69;100108.28;1674799;84;21176;-62
2021/03/28 23:34:29;;;;;;;0.45;0.30;;;;;;;4.12;86.58;100099.28;1675164;84;21592;-62
2021/03/28 23:37:00;;;;;;;0.50;0.30;;;;;;;4.08;86.57;100091.14;1675709;84;21143;-63
2021/03/28 23:39:29;;;;;;;0.50;0.50;;;;;;;4.06;86.88;100086.44;1675152;85;21370;-62
2021/03/28 23:41:59;;;;;;;0.40;0.30;;;;;;;4.05;87.03;100098.88;1675224;85;21180;-63
2021/03/28 23:44:39;;;;;;;0.45;0.35;;;;;;;4.04;87.15;100085.16;1675099;84;21588;-62
2021/03/28 23:47:20;;;;;;;1.05;0.30;;;;;;;4.04;87.22;100089.44;1674947;84;21171;-62
2021/03/28 23:49:54;;;;;;;0.30;0.30;;;;;;;4.02;87.43;100083.02;1675413;84;21201;-62
2021/03/28 23:52:43;;;;;;;1.35;0.30;;;;;;;4.03;87.30;100089.02;1675397;84;21530;-62
2021/03/28 23:55:16;;;;;;;0.90;0.20;;;;;;;4.04;87.38;100095.45;1680393;84;21128;-62
2021/03/28 23:57:49;;;;;;;0.40;0.40;;;;;;;4.04;87.28;100086.88;1675467;85;21484;-62
